Orense, España

1:05 PM CET en Octubre 31, 2014 (GMT +0100)
Vigo | Change Station
CLOSE
Current Station
Aeropuerto
Location: Vigo,
Altura: 840 ft
Estaciones meteorológicas cercanas

Alt 840 ft 42.24 °N, 8.62 °W | Updated 35 minutes ago

Clear
Despejado
70 ° F
Sensación térmica 70 ° F
N
10
Viento Variable Viento desde Sur

Hoy
Alta -- | Baja -- ° F
--% Posibilidad de precipitaciones
Ayer
Alta -- | Baja -- ° F
Precip. -- pul
8:03 AM 6:26 PM
Cuarto creciente, 54% visible
Presión 30.09 pul
Visibilidad -9999.0 Millas
Nubes
Punto de rocío 55 ° F
Humedad 60%
Precipitaciones 0.00 pul
Espesor de la nieve No disponible.
UV No disponible.
Polen No disponible.
Calidad del aire No disponible.
Flu Activity No disponible.
METAR LEVX 311130Z 19009KT 140V230 CAVOK 21/13 Q1019 NOSIG

More Conditions Fewer Conditions

Presión 30.09 pul
Visibilidad -9999.0 Millas
Nubes
Punto de rocío 55 ° F
Humedad 60%
Precipitaciones 0.00 pul
Espesor de la nieve No disponible.
UV No disponible.
Polen No disponible.
Calidad del aire No disponible.
Flu Activity No disponible.
METAR LEVX 311130Z 19009KT 140V230 CAVOK 21/13 Q1019 NOSIG

More Conditions Fewer Conditions

10-Day Weather Forecast

Almanac

Astronomía

Oct. 31, 2014 Salida Puesta
Hora real
Crepúsculo civil
Crepúsculo náutico
Crepúsculo astronómico
Luna
Horas de luz
Horas de luz
Tomorrow will be .
, % of the Moon is Illuminated

Extremos de hoy

Máximos del país Bajas del país

Community

WunderPhotos

Upload Photos

1,766,589 ¡fotos cargadas!

WunderBlogs® & News

Nearby

Calidad del aire

  Calidad del aire Índice AQ Contaminante
Not available.

Grosos de nieve

Estación Profundido Altura

Actividad de terremotos

Ciudad Distance Mag. Tiempo y dato
Magnitud mínima muestra es 2,5.

Temperaturas de aguas costeras

Lugar Temperatura

Estaciones meteorológicas cercanas